Shtandart — UAEM — position and weather

sailwx.info

Track history (hours):
 
Tides and Currents Weather Stations Pressure Air Temp Water Temp Dewpoint Dewpoint Depression Visibility Wind Speed Wind Dir Waves Ship Positions

Shtandart

Re-creation of early 1700's Russian naval frigate.

Last reported at 2020-Mar-03 13:28 UTC. Time now 2020-Apr-02 04:25 UTC.
Position N 37°54' E 015°48'.
Warning: this ship's position is 29 days out of date.

Length 26 m; draft 3 m.

Type: Sailing vessel. MMSI: 273452840.

Date/timePositionNaut miles runAvg speedWind from/ knotsBaromVisibWave heightAir tempDewpointWater temp
2020-Mar-03 13:28N 37°54' E 015°48'13 6.6
2020-Mar-03 11:30N 38°02' E 015°36'7 6.8
2020-Mar-03 10:30N 38°09' E 015°35'7 6.5
2020-Mar-03 09:30N 38°15' E 015°38'13 3.7
2020-Mar-03 05:52N 38°28' E 015°33'13 4.4
2020-Mar-03 02:54N 38°40' E 015°25'132 4.1
2020-Mar-01 18:30N 40°38' E 014°09'3 5.2
2020-Mar-01 18:00N 40°39' E 014°06'13 3.6
2020-Mar-01 14:20N 40°48' E 014°20'  
2020-Feb-27 21:28N 40°42' E 014°27'8 3.1
2020-Feb-27 19:01N 40°38' E 014°19'10 4.1
2020-Feb-27 16:30N 40°36' E 014°05'15 4.4
2020-Feb-27 13:01N 40°45' E 013°49'1 7.2
2020-Feb-27 12:57N 40°46' E 013°49'  
Track history (hours):
 
Tides and Currents Weather Stations Pressure Air Temp Water Temp Dewpoint Dewpoint Depression Visibility Wind Speed Wind Dir Waves Ship Positions

Shtandart

Re-creation of early 1700's Russian naval frigate.

Last reported at 2020-Mar-03 13:28 UTC. Time now 2020-Apr-02 04:25 UTC.
Position N 37°54' E 015°48'.
Warning: this ship's position is 29 days out of date.

Length 26 m; draft 3 m.

Type: Sailing vessel. MMSI: 273452840.

Date/timePositionNaut miles runAvg speedWind from/ knotsBaromVisibWave heightAir tempDewpointWater temp
2020-Mar-03 13:28N 37°54' E 015°48'13 6.6
2020-Mar-03 11:30N 38°02' E 015°36'7 6.8
2020-Mar-03 10:30N 38°09' E 015°35'7 6.5
2020-Mar-03 09:30N 38°15' E 015°38'13 3.7
2020-Mar-03 05:52N 38°28' E 015°33'13 4.4
2020-Mar-03 02:54N 38°40' E 015°25'132 4.1
2020-Mar-01 18:30N 40°38' E 014°09'3 5.2
2020-Mar-01 18:00N 40°39' E 014°06'13 3.6
2020-Mar-01 14:20N 40°48' E 014°20'  
2020-Feb-27 21:28N 40°42' E 014°27'8 3.1
2020-Feb-27 19:01N 40°38' E 014°19'10 4.1
2020-Feb-27 16:30N 40°36' E 014°05'15 4.4
2020-Feb-27 13:01N 40°45' E 013°49'1 7.2
2020-Feb-27 12:57N 40°46' E 013°49'  

Dump ship's entire track history